createdAt,value
2022-10-12T00:02:09.589Z,99.90
2022-10-12T00:04:37.011Z,99.90
2022-10-12T00:07:04.396Z,99.90
2022-10-12T00:09:34.432Z,99.90
2022-10-12T00:12:02.206Z,99.90
2022-10-12T00:14:29.696Z,99.90
2022-10-12T00:16:57.123Z,99.90
2022-10-12T00:19:24.733Z,99.90
2022-10-12T00:21:52.130Z,99.90
2022-10-12T00:24:19.667Z,99.90
2022-10-12T00:26:50.131Z,99.90
2022-10-12T00:29:17.675Z,99.90
2022-10-12T00:31:45.582Z,99.90
2022-10-12T00:34:13.329Z,99.90
2022-10-12T00:36:41.045Z,99.90
2022-10-12T00:39:09.490Z,99.90
2022-10-12T00:41:39.237Z,99.90
2022-10-12T00:44:25.118Z,99.90
2022-10-12T00:46:54.294Z,99.90
2022-10-12T00:49:23.672Z,99.90
2022-10-12T00:52:00.666Z,99.90
2022-10-12T00:54:34.912Z,99.90
2022-10-12T00:57:03.499Z,99.90
2022-10-12T00:59:37.534Z,99.90
2022-10-12T01:02:05.129Z,99.90
2022-10-12T01:04:32.926Z,99.90
2022-10-12T01:07:00.967Z,99.90
2022-10-12T01:09:28.942Z,99.90
2022-10-12T01:11:57.924Z,99.90
2022-10-12T01:14:26.112Z,99.90
2022-10-12T01:17:05.896Z,99.90
2022-10-12T01:19:36.514Z,99.90
2022-10-12T01:22:06.002Z,99.90
2022-10-12T01:24:40.888Z,99.90
2022-10-12T01:27:26.710Z,99.90
2022-10-12T01:29:54.573Z,99.90
2022-10-12T01:32:22.179Z,99.90
2022-10-12T01:35:05.536Z,99.90
2022-10-12T01:37:42.678Z,99.90
2022-10-12T01:40:16.190Z,99.90
2022-10-12T01:42:44.460Z,99.90
2022-10-12T01:45:14.458Z,99.90
2022-10-12T01:47:43.168Z,99.90
2022-10-12T01:50:12.530Z,99.90
2022-10-12T01:52:51.898Z,99.90
2022-10-12T01:55:45.791Z,99.90
2022-10-12T01:58:33.876Z,99.90
2022-10-12T02:01:01.265Z,99.90
2022-10-12T02:03:36.257Z,99.90
2022-10-12T02:06:06.993Z,99.90
2022-10-12T02:08:37.690Z,99.90
2022-10-12T02:11:08.617Z,99.90
2022-10-12T02:13:38.707Z,99.90
2022-10-12T02:16:09.993Z,99.90
2022-10-12T02:18:39.468Z,99.90
2022-10-12T02:21:07.777Z,99.90
2022-10-12T02:23:35.243Z,99.90
2022-10-12T02:26:03.278Z,99.90
2022-10-12T02:28:32.658Z,99.90
2022-10-12T02:31:03.982Z,99.90
2022-10-12T02:33:31.575Z,99.90
2022-10-12T02:36:01.887Z,99.90
2022-10-12T02:38:32.735Z,99.90
2022-10-12T02:41:05.708Z,99.90
2022-10-12T02:43:43.047Z,99.90
2022-10-12T02:46:11.097Z,99.90
2022-10-12T02:48:39.792Z,99.90
2022-10-12T02:51:08.581Z,99.90
2022-10-12T02:53:36.249Z,99.90
2022-10-12T02:56:05.559Z,99.90
2022-10-12T02:58:32.968Z,99.90
2022-10-12T03:01:00.511Z,99.90
2022-10-12T03:03:28.071Z,99.90
2022-10-12T03:05:56.218Z,99.90
2022-10-12T03:08:23.679Z,99.90
2022-10-12T03:10:51.142Z,99.90
2022-10-12T03:13:19.445Z,99.90
2022-10-12T03:15:46.985Z,99.90
2022-10-12T03:18:14.518Z,99.90
2022-10-12T03:20:42.296Z,99.90
2022-10-12T03:23:09.860Z,99.90
2022-10-12T03:25:37.285Z,99.90
2022-10-12T03:28:08.105Z,99.90
2022-10-12T03:30:35.537Z,99.90
2022-10-12T03:33:02.953Z,99.90
2022-10-12T03:35:33.327Z,99.90
2022-10-12T03:38:00.864Z,99.90
2022-10-12T03:40:28.246Z,99.90
2022-10-12T03:42:55.697Z,99.90
2022-10-12T03:45:23.044Z,99.90
2022-10-12T03:47:50.603Z,99.90
2022-10-12T03:50:18.082Z,99.90
2022-10-12T03:52:45.502Z,99.90
2022-10-12T03:55:13.410Z,99.90
2022-10-12T03:57:41.107Z,99.90
2022-10-12T04:00:08.947Z,99.90
2022-10-12T04:02:45.257Z,99.90
2022-10-12T04:05:12.715Z,99.90
2022-10-12T04:07:40.603Z,99.90
2022-10-12T04:10:08.722Z,99.90
2022-10-12T04:12:36.209Z,99.90
2022-10-12T04:15:04.470Z,99.90
2022-10-12T04:17:31.863Z,99.90
2022-10-12T04:19:59.385Z,99.90
2022-10-12T04:22:26.948Z,99.90
2022-10-12T04:24:58.440Z,99.90
2022-10-12T04:27:26.039Z,99.90
2022-10-12T04:29:54.640Z,99.90
2022-10-12T04:32:22.260Z,99.90
2022-10-12T04:34:55.530Z,99.90
2022-10-12T04:37:23.266Z,99.90
2022-10-12T04:39:50.877Z,99.90
2022-10-12T04:42:18.745Z,99.90
2022-10-12T04:44:46.987Z,99.90
2022-10-12T04:47:17.742Z,99.90
2022-10-12T04:49:46.256Z,99.90
2022-10-12T04:52:14.308Z,99.90
2022-10-12T04:54:41.913Z,99.90
2022-10-12T04:57:09.739Z,99.90
2022-10-12T04:59:37.500Z,99.90
2022-10-12T05:02:05.069Z,99.90
2022-10-12T05:07:06.732Z,99.90
2022-10-12T05:09:35.560Z,99.90
2022-10-12T05:12:12.975Z,99.90
2022-10-12T05:14:44.477Z,99.90
2022-10-12T05:17:15.655Z,99.90
2022-10-12T05:19:46.633Z,99.90
2022-10-12T05:22:14.157Z,99.90
2022-10-12T05:24:42.041Z,99.90
2022-10-12T05:27:09.698Z,99.90
2022-10-12T05:29:39.729Z,99.90
2022-10-12T05:32:07.351Z,99.90
2022-10-12T05:34:34.868Z,99.90
2022-10-12T05:37:05.377Z,99.90
2022-10-12T05:39:33.123Z,99.90
2022-10-12T05:42:01.079Z,99.90
2022-10-12T05:44:29.164Z,99.90
2022-10-12T05:46:58.314Z,99.90
2022-10-12T05:49:32.157Z,99.90
2022-10-12T05:52:00.318Z,99.90
2022-10-12T05:54:31.549Z,99.90
2022-10-12T05:57:10.888Z,99.90
2022-10-12T05:59:55.137Z,99.90
2022-10-12T06:02:22.800Z,99.90
2022-10-12T06:04:50.382Z,99.90
2022-10-12T06:07:21.280Z,99.90
2022-10-12T06:09:49.613Z,99.90
2022-10-12T06:12:29.073Z,99.90
2022-10-12T06:14:57.053Z,99.90
2022-10-12T06:17:24.520Z,99.90
2022-10-12T06:19:51.919Z,99.90
2022-10-12T06:22:19.388Z,99.90
2022-10-12T06:24:46.878Z,99.90
2022-10-12T06:27:14.369Z,99.90
2022-10-12T06:29:41.779Z,99.90
2022-10-12T06:32:09.448Z,99.90
2022-10-12T06:34:36.962Z,99.90
2022-10-12T06:37:04.525Z,99.90
2022-10-12T06:39:31.916Z,99.90
2022-10-12T06:41:59.353Z,99.90
2022-10-12T06:44:28.957Z,99.90
2022-10-12T06:46:56.364Z,99.90
2022-10-12T06:49:23.768Z,99.90
2022-10-12T06:51:51.342Z,99.90
2022-10-12T06:54:19.401Z,99.90
2022-10-12T06:56:46.977Z,99.90
2022-10-12T06:59:14.566Z,99.90
2022-10-12T07:01:42.097Z,99.90
2022-10-12T07:04:09.505Z,99.90
2022-10-12T07:06:36.865Z,99.90
2022-10-12T07:09:04.358Z,99.90
2022-10-12T07:11:31.774Z,99.90
2022-10-12T07:13:59.202Z,99.90
2022-10-12T07:16:26.656Z,99.90
2022-10-12T07:18:54.202Z,99.90
2022-10-12T07:21:22.066Z,99.90
2022-10-12T07:23:50.184Z,99.90
2022-10-12T07:26:18.143Z,99.90
2022-10-12T07:28:45.883Z,99.90
2022-10-12T07:31:13.421Z,99.90
2022-10-12T07:33:41.052Z,99.90
2022-10-12T07:36:21.243Z,99.90
2022-10-12T07:38:49.353Z,99.90
2022-10-12T07:41:17.221Z,99.90
2022-10-12T07:43:44.747Z,99.90
2022-10-12T07:46:14.175Z,99.90
2022-10-12T08:11:50.872Z,99.90
2022-10-12T08:24:38.678Z,99.90
2022-10-12T08:27:06.676Z,99.90
2022-10-12T08:29:34.238Z,99.90
2022-10-12T08:32:02.190Z,99.90
2022-10-12T08:34:30.897Z,99.90
2022-10-12T08:36:59.801Z,99.90
2022-10-12T08:39:27.662Z,99.90
2022-10-12T08:42:21.690Z,99.90
2022-10-12T08:45:03.842Z,99.90
2022-10-12T08:48:08.039Z,99.90
2022-10-12T08:50:43.862Z,99.90
2022-10-12T08:53:38.329Z,99.90
2022-10-12T08:56:06.366Z,99.90
2022-10-12T08:58:38.882Z,99.90
2022-10-12T09:01:36.980Z,99.90
2022-10-12T09:04:13.863Z,99.90
2022-10-12T09:06:48.541Z,99.90
2022-10-12T09:09:47.249Z,99.90
2022-10-12T09:12:29.105Z,99.90
2022-10-12T09:15:02.742Z,99.80
2022-10-12T09:17:41.005Z,99.80
2022-10-12T09:20:31.427Z,99.70
2022-10-12T09:23:17.429Z,99.30
2022-10-12T09:25:46.475Z,99.40
2022-10-12T09:28:29.000Z,99.20
2022-10-12T09:31:08.008Z,99.20
2022-10-12T09:33:47.892Z,98.80
2022-10-12T09:36:20.953Z,99.00
2022-10-12T09:38:50.061Z,98.90
2022-10-12T09:41:36.581Z,98.80
2022-10-12T09:44:06.376Z,98.80
2022-10-12T09:46:40.086Z,98.70
2022-10-12T09:49:07.740Z,98.80
2022-10-12T09:51:35.978Z,99.00
2022-10-12T09:54:05.635Z,98.70
2022-10-12T09:56:44.551Z,98.80
2022-10-12T09:59:28.328Z,98.50
2022-10-12T10:02:08.105Z,98.50
2022-10-12T10:04:36.209Z,98.00
2022-10-12T10:07:33.455Z,97.90
2022-10-12T10:10:08.210Z,98.00
2022-10-12T10:12:49.892Z,98.00
2022-10-12T10:15:43.364Z,98.30
2022-10-12T10:18:44.420Z,97.80
2022-10-12T10:21:17.909Z,97.00
2022-10-12T10:24:00.638Z,97.80
2022-10-12T10:26:32.328Z,97.60
2022-10-12T10:29:37.514Z,97.60
2022-10-12T10:32:12.641Z,94.90
2022-10-12T10:34:43.304Z,95.30
2022-10-12T10:37:23.053Z,94.10
2022-10-12T10:39:54.787Z,94.00
2022-10-12T10:42:28.511Z,94.10
2022-10-12T10:45:03.066Z,94.30
2022-10-12T10:47:36.469Z,94.30
2022-10-12T10:50:14.545Z,92.90
2022-10-12T10:53:00.654Z,94.30
2022-10-12T10:55:54.807Z,93.20
2022-10-12T10:58:46.993Z,94.00
2022-10-12T11:01:34.026Z,94.10
2022-10-12T11:04:09.378Z,94.00
2022-10-12T11:06:55.049Z,94.30
2022-10-12T11:09:31.027Z,93.70
2022-10-12T11:12:09.639Z,94.00
2022-10-12T11:15:06.941Z,93.30
2022-10-12T11:17:41.152Z,93.10
2022-10-12T11:20:19.915Z,93.70
2022-10-12T11:22:55.049Z,93.60
2022-10-12T11:26:06.623Z,93.40
2022-10-12T11:28:37.670Z,91.90
2022-10-12T11:31:12.503Z,92.30
2022-10-12T11:33:43.845Z,92.50
2022-10-12T11:36:23.179Z,91.20
2022-10-12T11:38:56.555Z,90.60
2022-10-12T11:42:09.759Z,90.40
2022-10-12T11:44:43.019Z,86.70
2022-10-12T11:47:31.159Z,86.90
2022-10-12T11:50:30.989Z,83.60
2022-10-12T11:53:02.090Z,83.60
2022-10-12T11:55:51.328Z,85.50
2022-10-12T11:58:59.325Z,84.20
2022-10-12T12:01:48.147Z,80.60
2022-10-12T12:04:41.724Z,83.40
2022-10-12T12:07:43.909Z,84.40
2022-10-12T12:10:30.696Z,83.10
2022-10-12T12:13:11.507Z,81.00
2022-10-12T12:15:41.098Z,82.40
2022-10-12T12:18:16.116Z,83.40
2022-10-12T12:20:43.782Z,84.10
2022-10-12T12:23:29.449Z,85.20
2022-10-12T12:26:16.572Z,86.40
2022-10-12T12:29:07.895Z,87.60
2022-10-12T12:31:35.923Z,88.00
2022-10-12T12:34:15.680Z,88.50
2022-10-12T12:36:50.043Z,90.20
2022-10-12T12:39:31.303Z,90.20
2022-10-12T12:42:02.831Z,90.70
2022-10-12T12:44:44.804Z,90.50
2022-10-12T12:47:43.385Z,90.80
2022-10-12T12:50:31.862Z,90.60
2022-10-12T12:53:19.475Z,90.60
2022-10-12T12:56:07.604Z,90.70
2022-10-12T12:59:08.504Z,90.60
2022-10-12T13:02:00.645Z,90.80
2022-10-12T13:04:51.895Z,91.00
2022-10-12T13:07:36.341Z,91.20
2022-10-12T13:10:26.661Z,91.30
2022-10-12T13:13:25.218Z,91.30
2022-10-12T13:16:11.819Z,90.90
2022-10-12T13:18:59.843Z,90.50
2022-10-12T13:21:38.305Z,90.40
2022-10-12T13:24:12.152Z,90.50
2022-10-12T13:26:41.126Z,90.70
2022-10-12T13:29:32.074Z,90.60
2022-10-12T13:32:02.714Z,90.80
2022-10-12T13:34:45.499Z,90.60
2022-10-12T13:37:15.760Z,91.40
2022-10-12T13:39:47.284Z,91.00
2022-10-12T13:42:31.129Z,90.90
2022-10-12T13:44:59.107Z,90.90
2022-10-12T13:47:33.793Z,91.10
2022-10-12T13:50:01.933Z,91.00
2022-10-12T13:52:32.983Z,91.00
2022-10-12T13:55:14.441Z,91.20
2022-10-12T13:57:50.137Z,91.30
2022-10-12T14:00:20.848Z,91.40
2022-10-12T14:03:02.317Z,91.60
2022-10-12T14:05:31.752Z,91.80
2022-10-12T14:08:07.702Z,91.90
2022-10-12T14:10:38.325Z,92.50
2022-10-12T14:13:16.060Z,92.20
2022-10-12T14:15:43.754Z,92.30
2022-10-12T14:18:35.774Z,92.40
2022-10-12T14:21:16.373Z,92.80
2022-10-12T14:23:58.977Z,92.80
2022-10-12T14:26:42.443Z,93.20
2022-10-12T14:29:29.200Z,92.90
2022-10-12T14:32:00.101Z,93.20
2022-10-12T14:34:27.763Z,93.00
2022-10-12T14:37:24.071Z,93.10
2022-10-12T14:39:59.295Z,93.30
2022-10-12T14:42:36.601Z,93.20
2022-10-12T14:45:22.819Z,93.30
2022-10-12T14:47:50.545Z,93.20
2022-10-12T14:50:21.193Z,93.30
2022-10-12T14:52:51.979Z,93.40
2022-10-12T14:55:20.735Z,93.30
2022-10-12T14:57:49.352Z,93.30
2022-10-12T15:00:19.705Z,93.50
2022-10-12T15:02:48.438Z,93.60
2022-10-12T15:05:18.041Z,93.80
2022-10-12T15:07:46.990Z,93.70
2022-10-12T15:10:16.082Z,94.40
2022-10-12T15:12:43.914Z,94.70
2022-10-12T15:15:28.724Z,94.80
2022-10-12T15:17:58.220Z,95.40
2022-10-12T15:20:30.079Z,95.50
2022-10-12T15:22:59.340Z,95.40
2022-10-12T15:25:35.856Z,95.60
2022-10-12T15:28:04.800Z,96.00
2022-10-12T15:30:33.381Z,96.30
2022-10-12T15:33:01.179Z,96.00
2022-10-12T15:35:33.877Z,96.30
2022-10-12T15:38:01.589Z,96.20
2022-10-12T15:40:30.951Z,96.30
2022-10-12T15:42:59.030Z,96.60
2022-10-12T15:45:36.285Z,96.70
2022-10-12T15:48:06.116Z,97.00
2022-10-12T15:50:43.253Z,97.00
2022-10-12T15:53:21.023Z,97.30
2022-10-12T15:55:48.835Z,97.40
2022-10-12T15:58:16.826Z,97.60
2022-10-12T16:00:44.621Z,97.80
2022-10-12T16:03:22.690Z,98.00
2022-10-12T16:05:53.365Z,98.00
2022-10-12T16:08:20.975Z,98.30
2022-10-12T16:10:50.411Z,98.30
2022-10-12T16:13:18.491Z,98.50
2022-10-12T16:15:46.297Z,98.70
2022-10-12T16:18:17.453Z,99.10
2022-10-12T16:20:48.585Z,98.90
2022-10-12T16:23:30.846Z,99.00
2022-10-12T16:25:59.097Z,99.10
2022-10-12T16:28:26.974Z,99.20
2022-10-12T16:30:54.934Z,99.50
2022-10-12T16:33:22.599Z,99.80
2022-10-12T16:35:50.224Z,99.70
2022-10-12T16:38:20.273Z,99.90
2022-10-12T16:40:49.403Z,99.90
2022-10-12T16:43:17.550Z,99.90
2022-10-12T16:45:45.368Z,99.90
2022-10-12T16:48:13.530Z,99.90
2022-10-12T16:50:43.683Z,99.90
2022-10-12T16:53:11.551Z,99.90
2022-10-12T16:55:39.331Z,99.90
2022-10-12T16:58:07.224Z,99.90
2022-10-12T17:00:35.216Z,99.90
2022-10-12T17:03:04.640Z,99.90
2022-10-12T17:05:32.688Z,99.90
2022-10-12T17:08:14.769Z,99.90
2022-10-12T17:10:46.269Z,99.90
2022-10-12T17:13:14.587Z,99.90
2022-10-12T17:15:55.033Z,99.90
2022-10-12T17:18:29.378Z,99.90
2022-10-12T17:21:00.740Z,99.90
2022-10-12T17:23:29.140Z,99.90
2022-10-12T17:26:00.075Z,99.90
2022-10-12T17:28:31.435Z,99.90
2022-10-12T17:31:11.460Z,99.90
2022-10-12T17:33:42.388Z,99.90
2022-10-12T17:36:17.036Z,99.90
2022-10-12T17:38:52.714Z,99.90
2022-10-12T17:41:28.917Z,99.90
2022-10-12T17:44:00.190Z,99.90
2022-10-12T17:46:28.311Z,99.90
2022-10-12T17:48:58.908Z,99.90
2022-10-12T17:51:27.007Z,99.90
2022-10-12T17:53:54.663Z,99.90
2022-10-12T17:56:22.805Z,99.90
2022-10-12T17:58:58.648Z,99.90
2022-10-12T18:01:31.273Z,99.90
2022-10-12T18:04:03.914Z,99.90
2022-10-12T18:06:34.510Z,99.90
2022-10-12T18:09:04.777Z,99.90
2022-10-12T18:11:36.558Z,99.90
2022-10-12T18:14:11.678Z,99.90
2022-10-12T18:16:39.367Z,99.90
2022-10-12T18:19:09.739Z,99.90
2022-10-12T18:21:38.380Z,99.90
2022-10-12T18:24:15.971Z,99.90
2022-10-12T18:26:46.344Z,99.90
2022-10-12T18:29:21.027Z,99.90
2022-10-12T18:32:03.631Z,99.90
2022-10-12T18:35:07.278Z,99.90
2022-10-12T18:37:40.217Z,99.90
2022-10-12T18:40:17.303Z,99.90
2022-10-12T18:42:44.909Z,99.90
2022-10-12T18:45:12.671Z,99.90
2022-10-12T18:47:40.336Z,99.90
2022-10-12T18:50:08.610Z,99.90
2022-10-12T18:52:36.223Z,99.90
2022-10-12T18:55:03.934Z,99.90
2022-10-12T18:57:33.563Z,99.90
2022-10-12T19:00:07.253Z,99.90
2022-10-12T19:02:36.095Z,99.90
2022-10-12T19:05:04.288Z,99.90
2022-10-12T19:07:33.259Z,99.90
2022-10-12T19:10:01.118Z,99.90
2022-10-12T19:12:28.747Z,99.90
2022-10-12T19:14:56.325Z,99.90
2022-10-12T19:17:23.963Z,99.90
2022-10-12T19:19:51.579Z,99.90
2022-10-12T19:22:19.548Z,99.90
2022-10-12T19:24:48.207Z,99.90
2022-10-12T19:27:15.789Z,99.90
2022-10-12T19:29:45.774Z,99.90
2022-10-12T19:32:13.583Z,99.90
2022-10-12T19:34:41.153Z,99.90
2022-10-12T19:37:08.733Z,99.90
2022-10-12T19:39:36.471Z,99.90
2022-10-12T19:42:10.826Z,99.90
2022-10-12T19:44:39.338Z,99.90
2022-10-12T19:47:06.942Z,99.90
2022-10-12T19:49:36.960Z,99.90
2022-10-12T19:52:06.075Z,99.90
2022-10-12T19:54:36.198Z,99.90
2022-10-12T19:57:04.254Z,99.90
2022-10-12T19:59:31.934Z,99.90
2022-10-12T20:01:59.525Z,99.90
2022-10-12T20:04:29.616Z,99.90
2022-10-12T20:06:57.248Z,99.90
2022-10-12T20:09:24.916Z,99.90
2022-10-12T20:11:52.525Z,99.90
2022-10-12T20:14:20.544Z,99.90
2022-10-12T20:16:48.154Z,99.90
2022-10-12T20:19:15.767Z,99.90
2022-10-12T20:21:43.297Z,99.90
2022-10-12T20:24:11.188Z,99.90
2022-10-12T20:26:38.977Z,99.90
2022-10-12T20:29:06.874Z,99.90
2022-10-12T20:31:34.530Z,99.90
2022-10-12T20:34:02.290Z,99.90
2022-10-12T20:36:31.025Z,99.90
2022-10-12T20:38:59.258Z,99.90
2022-10-12T20:41:27.711Z,99.90
2022-10-12T20:43:59.800Z,99.90
2022-10-12T20:46:30.808Z,99.90
2022-10-12T20:49:01.149Z,99.90
2022-10-12T20:51:31.900Z,99.90
2022-10-12T20:54:00.593Z,99.90
2022-10-12T20:56:30.247Z,99.90
2022-10-12T20:58:58.419Z,99.90
2022-10-12T21:01:26.644Z,99.90
2022-10-12T21:03:54.747Z,99.90
2022-10-12T21:06:23.738Z,99.90
2022-10-12T21:08:58.078Z,99.90
2022-10-12T21:11:25.839Z,99.90
2022-10-12T21:13:57.462Z,99.90
2022-10-12T21:16:27.307Z,99.90
2022-10-12T21:18:55.634Z,99.90
2022-10-12T21:21:25.266Z,99.90
2022-10-12T21:23:58.804Z,99.90
2022-10-12T21:26:32.928Z,99.90
2022-10-12T21:29:02.056Z,99.90
2022-10-12T21:31:33.014Z,99.90
2022-10-12T21:34:02.690Z,99.90
2022-10-12T21:36:31.558Z,99.90
2022-10-12T21:38:59.593Z,99.90
2022-10-12T21:41:29.357Z,99.90
2022-10-12T21:43:57.642Z,99.90
2022-10-12T21:46:27.859Z,99.90
2022-10-12T21:48:55.975Z,99.90
2022-10-12T21:51:25.169Z,99.90
2022-10-12T21:53:53.275Z,99.90
2022-10-12T21:56:23.739Z,99.90
2022-10-12T21:58:53.448Z,99.90
2022-10-12T22:01:26.598Z,99.90
2022-10-12T22:03:57.158Z,99.90
2022-10-12T22:06:27.444Z,99.90
2022-10-12T22:09:05.301Z,99.90
2022-10-12T22:11:35.032Z,99.90
2022-10-12T22:14:05.590Z,99.90
2022-10-12T22:16:33.610Z,99.90
2022-10-12T22:19:03.519Z,99.90
2022-10-12T22:21:34.039Z,99.90
2022-10-12T22:24:02.753Z,99.90
2022-10-12T22:26:30.728Z,99.90
2022-10-12T22:28:59.891Z,99.90
2022-10-12T22:31:27.972Z,99.90
2022-10-12T22:33:56.481Z,99.90
2022-10-12T22:36:24.109Z,99.90
2022-10-12T22:38:51.722Z,99.90
2022-10-12T22:41:20.907Z,99.90
2022-10-12T22:43:50.359Z,99.90
2022-10-12T22:46:19.357Z,99.90
2022-10-12T22:48:47.320Z,99.90
2022-10-12T22:51:21.740Z,99.90
2022-10-12T22:53:49.751Z,99.90
2022-10-12T22:56:18.618Z,99.90
2022-10-12T22:58:48.866Z,99.90
2022-10-12T23:01:17.948Z,99.90
2022-10-12T23:03:46.051Z,99.90
2022-10-12T23:06:16.928Z,99.90
2022-10-12T23:08:45.434Z,99.90
2022-10-12T23:11:19.357Z,99.90
2022-10-12T23:13:48.105Z,99.90
2022-10-12T23:16:17.371Z,99.90
2022-10-12T23:18:45.492Z,99.90
2022-10-12T23:21:17.380Z,99.90
2022-10-12T23:23:46.218Z,99.90
2022-10-12T23:26:19.758Z,99.90
2022-10-12T23:28:48.436Z,99.90
2022-10-12T23:31:19.972Z,99.90
2022-10-12T23:33:48.013Z,99.90
2022-10-12T23:36:17.393Z,99.90
2022-10-12T23:38:45.483Z,99.90
2022-10-12T23:41:13.985Z,99.90
2022-10-12T23:43:42.367Z,99.90
2022-10-12T23:46:12.601Z,99.90
2022-10-12T23:48:40.480Z,99.90
2022-10-12T23:51:09.727Z,99.90
2022-10-12T23:53:37.981Z,99.90
2022-10-12T23:56:06.618Z,99.90
2022-10-12T23:58:35.145Z,99.90
